sensor_id;sensor_type;location;lat;lon;timestamp;P1;durP1;ratioP1;P2;durP2;ratioP2
23565;SDS011;22140;48.988;8.544;2023-08-06T00:04:42;7.47;;;2.47;;
23565;SDS011;22140;48.988;8.544;2023-08-06T00:09:44;5.70;;;2.33;;
23565;SDS011;22140;48.988;8.544;2023-08-06T00:14:45;12.27;;;2.57;;
23565;SDS011;22140;48.988;8.544;2023-08-06T00:19:46;5.70;;;2.17;;
23565;SDS011;22140;48.988;8.544;2023-08-06T00:24:48;7.28;;;2.50;;
23565;SDS011;22140;48.988;8.544;2023-08-06T00:29:49;6.93;;;2.50;;
23565;SDS011;22140;48.988;8.544;2023-08-06T00:34:50;7.20;;;2.35;;
23565;SDS011;22140;48.988;8.544;2023-08-06T00:39:52;5.55;;;2.03;;
23565;SDS011;22140;48.988;8.544;2023-08-06T00:44:53;6.57;;;2.27;;
23565;SDS011;22140;48.988;8.544;2023-08-06T00:49:54;5.75;;;1.98;;
23565;SDS011;22140;48.988;8.544;2023-08-06T00:54:56;6.47;;;1.83;;
23565;SDS011;22140;48.988;8.544;2023-08-06T00:59:57;6.60;;;2.30;;
23565;SDS011;22140;48.988;8.544;2023-08-06T01:04:59;7.95;;;2.25;;
23565;SDS011;22140;48.988;8.544;2023-08-06T01:15:22;6.10;;;2.00;;
23565;SDS011;22140;48.988;8.544;2023-08-06T01:20:28;9.90;;;2.20;;
23565;SDS011;22140;48.988;8.544;2023-08-06T01:25:31;7.65;;;2.30;;
23565;SDS011;22140;48.988;8.544;2023-08-06T01:30:34;8.83;;;2.27;;
23565;SDS011;22140;48.988;8.544;2023-08-06T01:35:37;5.93;;;2.25;;
23565;SDS011;22140;48.988;8.544;2023-08-06T01:40:39;7.63;;;2.23;;
23565;SDS011;22140;48.988;8.544;2023-08-06T01:45:40;5.67;;;2.07;;
23565;SDS011;22140;48.988;8.544;2023-08-06T01:50:42;5.45;;;2.05;;
23565;SDS011;22140;48.988;8.544;2023-08-06T01:55:47;7.63;;;2.40;;
23565;SDS011;22140;48.988;8.544;2023-08-06T02:00:48;7.10;;;1.90;;
23565;SDS011;22140;48.988;8.544;2023-08-06T02:05:50;7.05;;;1.90;;
23565;SDS011;22140;48.988;8.544;2023-08-06T02:10:55;7.57;;;2.15;;
23565;SDS011;22140;48.988;8.544;2023-08-06T02:15:56;7.20;;;1.93;;
23565;SDS011;22140;48.988;8.544;2023-08-06T02:20:58;6.47;;;2.20;;
23565;SDS011;22140;48.988;8.544;2023-08-06T02:26:00;7.20;;;1.90;;
23565;SDS011;22140;48.988;8.544;2023-08-06T02:31:02;6.97;;;1.90;;
23565;SDS011;22140;48.988;8.544;2023-08-06T02:36:03;6.37;;;1.97;;
23565;SDS011;22140;48.988;8.544;2023-08-06T02:41:05;9.88;;;2.33;;
23565;SDS011;22140;48.988;8.544;2023-08-06T02:46:06;7.65;;;1.75;;
23565;SDS011;22140;48.988;8.544;2023-08-06T02:51:08;7.07;;;2.03;;
23565;SDS011;22140;48.988;8.544;2023-08-06T02:56:09;5.97;;;1.60;;
23565;SDS011;22140;48.988;8.544;2023-08-06T03:01:10;5.45;;;1.30;;
23565;SDS011;22140;48.988;8.544;2023-08-06T03:06:12;9.60;;;1.67;;
23565;SDS011;22140;48.988;8.544;2023-08-06T03:11:13;6.35;;;1.63;;
23565;SDS011;22140;48.988;8.544;2023-08-06T03:16:14;7.03;;;1.50;;
23565;SDS011;22140;48.988;8.544;2023-08-06T03:21:16;4.87;;;1.60;;
23565;SDS011;22140;48.988;8.544;2023-08-06T03:26:17;7.22;;;1.30;;
23565;SDS011;22140;48.988;8.544;2023-08-06T03:31:18;8.85;;;1.48;;
23565;SDS011;22140;48.988;8.544;2023-08-06T03:36:20;7.70;;;1.50;;
23565;SDS011;22140;48.988;8.544;2023-08-06T03:41:21;5.13;;;1.35;;
23565;SDS011;22140;48.988;8.544;2023-08-06T03:46:22;5.78;;;1.40;;
23565;SDS011;22140;48.988;8.544;2023-08-06T03:51:24;8.33;;;1.37;;
23565;SDS011;22140;48.988;8.544;2023-08-06T03:56:25;6.20;;;1.10;;
23565;SDS011;22140;48.988;8.544;2023-08-06T04:01:26;4.45;;;0.95;;
23565;SDS011;22140;48.988;8.544;2023-08-06T04:06:28;5.28;;;1.00;;
23565;SDS011;22140;48.988;8.544;2023-08-06T04:11:29;6.20;;;1.20;;
23565;SDS011;22140;48.988;8.544;2023-08-06T04:16:31;5.82;;;1.20;;
23565;SDS011;22140;48.988;8.544;2023-08-06T04:21:32;7.20;;;1.00;;
23565;SDS011;22140;48.988;8.544;2023-08-06T04:26:33;5.40;;;1.07;;
23565;SDS011;22140;48.988;8.544;2023-08-06T04:31:35;5.63;;;0.90;;
23565;SDS011;22140;48.988;8.544;2023-08-06T04:36:36;4.10;;;0.90;;
23565;SDS011;22140;48.988;8.544;2023-08-06T04:41:38;6.10;;;0.77;;
23565;SDS011;22140;48.988;8.544;2023-08-06T04:46:39;4.75;;;1.05;;
23565;SDS011;22140;48.988;8.544;2023-08-06T04:51:41;5.55;;;1.20;;
23565;SDS011;22140;48.988;8.544;2023-08-06T04:56:42;4.87;;;0.90;;
23565;SDS011;22140;48.988;8.544;2023-08-06T05:01:44;3.85;;;0.80;;
23565;SDS011;22140;48.988;8.544;2023-08-06T05:06:45;7.18;;;1.10;;
23565;SDS011;22140;48.988;8.544;2023-08-06T05:11:47;4.23;;;0.87;;
23565;SDS011;22140;48.988;8.544;2023-08-06T05:16:48;5.47;;;0.93;;
23565;SDS011;22140;48.988;8.544;2023-08-06T05:21:49;4.25;;;0.80;;
23565;SDS011;22140;48.988;8.544;2023-08-06T05:26:51;4.57;;;1.10;;
23565;SDS011;22140;48.988;8.544;2023-08-06T05:31:52;2.95;;;0.70;;
23565;SDS011;22140;48.988;8.544;2023-08-06T05:36:54;3.67;;;0.70;;
23565;SDS011;22140;48.988;8.544;2023-08-06T05:41:56;4.10;;;0.77;;
23565;SDS011;22140;48.988;8.544;2023-08-06T05:46:57;2.85;;;0.70;;
23565;SDS011;22140;48.988;8.544;2023-08-06T05:51:58;2.40;;;0.60;;
23565;SDS011;22140;48.988;8.544;2023-08-06T05:57:00;4.27;;;0.70;;
23565;SDS011;22140;48.988;8.544;2023-08-06T06:02:02;5.03;;;0.80;;
23565;SDS011;22140;48.988;8.544;2023-08-06T06:07:03;5.80;;;0.70;;
23565;SDS011;22140;48.988;8.544;2023-08-06T06:12:08;2.97;;;0.60;;
23565;SDS011;22140;48.988;8.544;2023-08-06T06:17:09;2.30;;;0.60;;
23565;SDS011;22140;48.988;8.544;2023-08-06T06:22:10;3.55;;;0.50;;
23565;SDS011;22140;48.988;8.544;2023-08-06T06:27:12;2.70;;;0.40;;
23565;SDS011;22140;48.988;8.544;2023-08-06T06:32:13;1.48;;;0.30;;
23565;SDS011;22140;48.988;8.544;2023-08-06T06:37:14;2.45;;;0.47;;
23565;SDS011;22140;48.988;8.544;2023-08-06T06:42:16;2.90;;;0.50;;
23565;SDS011;22140;48.988;8.544;2023-08-06T06:47:17;2.13;;;0.40;;
23565;SDS011;22140;48.988;8.544;2023-08-06T06:52:18;3.65;;;0.60;;
23565;SDS011;22140;48.988;8.544;2023-08-06T06:57:20;5.20;;;0.70;;
23565;SDS011;22140;48.988;8.544;2023-08-06T07:02:21;4.68;;;0.93;;
23565;SDS011;22140;48.988;8.544;2023-08-06T07:07:23;4.22;;;1.00;;
23565;SDS011;22140;48.988;8.544;2023-08-06T07:12:24;1.87;;;0.47;;
23565;SDS011;22140;48.988;8.544;2023-08-06T07:17:25;0.38;;;0.20;;
23565;SDS011;22140;48.988;8.544;2023-08-06T07:22:27;2.20;;;0.50;;
23565;SDS011;22140;48.988;8.544;2023-08-06T07:27:28;4.17;;;0.60;;
23565;SDS011;22140;48.988;8.544;2023-08-06T07:32:29;11.18;;;0.70;;
23565;SDS011;22140;48.988;8.544;2023-08-06T07:37:31;2.40;;;0.60;;
23565;SDS011;22140;48.988;8.544;2023-08-06T07:42:32;3.10;;;0.40;;
23565;SDS011;22140;48.988;8.544;2023-08-06T07:47:36;2.03;;;0.30;;
23565;SDS011;22140;48.988;8.544;2023-08-06T07:52:37;1.02;;;0.28;;
23565;SDS011;22140;48.988;8.544;2023-08-06T07:57:39;1.65;;;0.40;;
23565;SDS011;22140;48.988;8.544;2023-08-06T08:02:40;3.60;;;0.43;;
23565;SDS011;22140;48.988;8.544;2023-08-06T08:07:41;2.40;;;0.30;;
23565;SDS011;22140;48.988;8.544;2023-08-06T08:12:43;1.48;;;0.45;;
23565;SDS011;22140;48.988;8.544;2023-08-06T08:17:44;1.93;;;0.40;;
23565;SDS011;22140;48.988;8.544;2023-08-06T08:22:46;1.27;;;0.45;;
23565;SDS011;22140;48.988;8.544;2023-08-06T08:27:47;1.70;;;0.40;;
23565;SDS011;22140;48.988;8.544;2023-08-06T08:32:48;1.63;;;0.27;;
23565;SDS011;22140;48.988;8.544;2023-08-06T08:37:50;2.95;;;0.43;;
23565;SDS011;22140;48.988;8.544;2023-08-06T08:42:52;1.85;;;0.40;;
23565;SDS011;22140;48.988;8.544;2023-08-06T08:47:54;1.93;;;0.50;;
23565;SDS011;22140;48.988;8.544;2023-08-06T08:52:55;2.97;;;0.40;;
23565;SDS011;22140;48.988;8.544;2023-08-06T08:57:57;1.60;;;0.40;;
23565;SDS011;22140;48.988;8.544;2023-08-06T09:02:58;2.90;;;0.50;;
23565;SDS011;22140;48.988;8.544;2023-08-06T09:08:02;2.60;;;0.45;;
23565;SDS011;22140;48.988;8.544;2023-08-06T09:13:04;4.03;;;0.60;;
23565;SDS011;22140;48.988;8.544;2023-08-06T09:18:11;2.73;;;0.50;;
23565;SDS011;22140;48.988;8.544;2023-08-06T09:23:13;2.60;;;0.50;;
23565;SDS011;22140;48.988;8.544;2023-08-06T09:28:14;2.88;;;0.47;;
23565;SDS011;22140;48.988;8.544;2023-08-06T09:33:19;1.67;;;0.40;;
23565;SDS011;22140;48.988;8.544;2023-08-06T09:38:20;1.40;;;0.40;;
23565;SDS011;22140;48.988;8.544;2023-08-06T09:43:22;2.53;;;0.50;;
23565;SDS011;22140;48.988;8.544;2023-08-06T09:48:23;2.17;;;0.47;;
23565;SDS011;22140;48.988;8.544;2023-08-06T09:53:25;2.77;;;0.60;;
23565;SDS011;22140;48.988;8.544;2023-08-06T09:58:27;6.88;;;0.90;;
23565;SDS011;22140;48.988;8.544;2023-08-06T10:03:29;2.17;;;0.40;;
23565;SDS011;22140;48.988;8.544;2023-08-06T10:08:31;3.10;;;0.60;;
23565;SDS011;22140;48.988;8.544;2023-08-06T10:13:33;1.48;;;0.40;;
23565;SDS011;22140;48.988;8.544;2023-08-06T10:18:36;6.65;;;0.75;;
23565;SDS011;22140;48.988;8.544;2023-08-06T10:23:39;2.40;;;0.50;;
23565;SDS011;22140;48.988;8.544;2023-08-06T10:28:41;3.13;;;0.80;;
23565;SDS011;22140;48.988;8.544;2023-08-06T10:33:43;3.30;;;0.80;;
23565;SDS011;22140;48.988;8.544;2023-08-06T10:38:48;8.60;;;0.88;;
23565;SDS011;22140;48.988;8.544;2023-08-06T10:43:50;4.17;;;0.97;;
23565;SDS011;22140;48.988;8.544;2023-08-06T10:48:52;4.55;;;1.05;;
23565;SDS011;22140;48.988;8.544;2023-08-06T10:53:54;3.70;;;0.90;;
23565;SDS011;22140;48.988;8.544;2023-08-06T10:58:55;4.10;;;0.90;;
23565;SDS011;22140;48.988;8.544;2023-08-06T11:04:00;4.18;;;0.90;;
23565;SDS011;22140;48.988;8.544;2023-08-06T11:09:02;6.00;;;1.15;;
23565;SDS011;22140;48.988;8.544;2023-08-06T11:14:03;4.17;;;1.00;;
23565;SDS011;22140;48.988;8.544;2023-08-06T11:19:07;4.00;;;0.90;;
23565;SDS011;22140;48.988;8.544;2023-08-06T11:24:08;4.80;;;1.20;;
23565;SDS011;22140;48.988;8.544;2023-08-06T11:29:11;4.50;;;1.20;;
23565;SDS011;22140;48.988;8.544;2023-08-06T11:34:12;5.75;;;1.60;;
23565;SDS011;22140;48.988;8.544;2023-08-06T11:39:13;5.73;;;1.37;;
23565;SDS011;22140;48.988;8.544;2023-08-06T11:44:15;6.17;;;1.57;;
23565;SDS011;22140;48.988;8.544;2023-08-06T11:49:18;6.05;;;1.60;;
23565;SDS011;22140;48.988;8.544;2023-08-06T11:54:40;5.70;;;1.45;;
23565;SDS011;22140;48.988;8.544;2023-08-06T11:59:43;5.97;;;1.80;;
23565;SDS011;22140;48.988;8.544;2023-08-06T12:04:57;6.13;;;1.70;;
23565;SDS011;22140;48.988;8.544;2023-08-06T12:09:59;5.18;;;1.35;;
23565;SDS011;22140;48.988;8.544;2023-08-06T12:15:00;7.40;;;1.50;;
23565;SDS011;22140;48.988;8.544;2023-08-06T12:20:02;7.15;;;1.45;;
23565;SDS011;22140;48.988;8.544;2023-08-06T12:25:06;4.63;;;1.13;;
23565;SDS011;22140;48.988;8.544;2023-08-06T12:30:09;7.00;;;1.30;;
23565;SDS011;22140;48.988;8.544;2023-08-06T12:35:11;4.32;;;1.30;;
23565;SDS011;22140;48.988;8.544;2023-08-06T12:40:12;4.80;;;1.40;;
23565;SDS011;22140;48.988;8.544;2023-08-06T12:45:16;8.03;;;1.53;;
23565;SDS011;22140;48.988;8.544;2023-08-06T12:50:18;6.10;;;1.42;;
23565;SDS011;22140;48.988;8.544;2023-08-06T12:55:19;6.72;;;1.30;;
23565;SDS011;22140;48.988;8.544;2023-08-06T13:00:21;5.00;;;1.13;;
23565;SDS011;22140;48.988;8.544;2023-08-06T13:05:22;4.97;;;1.30;;
23565;SDS011;22140;48.988;8.544;2023-08-06T13:10:23;4.90;;;1.00;;
23565;SDS011;22140;48.988;8.544;2023-08-06T13:15:25;3.87;;;0.80;;
23565;SDS011;22140;48.988;8.544;2023-08-06T13:20:29;4.72;;;0.80;;
23565;SDS011;22140;48.988;8.544;2023-08-06T13:25:31;4.65;;;0.80;;
23565;SDS011;22140;48.988;8.544;2023-08-06T13:30:37;4.23;;;0.70;;
23565;SDS011;22140;48.988;8.544;2023-08-06T13:35:43;2.97;;;0.77;;
23565;SDS011;22140;48.988;8.544;2023-08-06T13:40:44;5.55;;;0.75;;
23565;SDS011;22140;48.988;8.544;2023-08-06T13:45:47;3.85;;;0.70;;
23565;SDS011;22140;48.988;8.544;2023-08-06T13:50:48;2.83;;;0.67;;
23565;SDS011;22140;48.988;8.544;2023-08-06T13:55:50;5.70;;;1.20;;
23565;SDS011;22140;48.988;8.544;2023-08-06T14:00:52;8.57;;;1.17;;
23565;SDS011;22140;48.988;8.544;2023-08-06T14:05:54;3.93;;;0.83;;
23565;SDS011;22140;48.988;8.544;2023-08-06T14:10:58;4.18;;;0.70;;
23565;SDS011;22140;48.988;8.544;2023-08-06T14:15:59;3.67;;;0.70;;
23565;SDS011;22140;48.988;8.544;2023-08-06T14:21:01;4.07;;;0.80;;
23565;SDS011;22140;48.988;8.544;2023-08-06T14:26:02;4.20;;;0.80;;
23565;SDS011;22140;48.988;8.544;2023-08-06T14:31:04;3.88;;;0.90;;
23565;SDS011;22140;48.988;8.544;2023-08-06T14:36:05;5.63;;;0.80;;
23565;SDS011;22140;48.988;8.544;2023-08-06T14:41:07;3.70;;;0.70;;
23565;SDS011;22140;48.988;8.544;2023-08-06T14:46:08;3.17;;;0.60;;
23565;SDS011;22140;48.988;8.544;2023-08-06T14:51:09;3.13;;;0.80;;
23565;SDS011;22140;48.988;8.544;2023-08-06T14:56:11;3.90;;;0.77;;
23565;SDS011;22140;48.988;8.544;2023-08-06T15:01:12;5.30;;;0.77;;
23565;SDS011;22140;48.988;8.544;2023-08-06T15:06:14;4.60;;;0.90;;
23565;SDS011;22140;48.988;8.544;2023-08-06T15:11:15;2.70;;;0.70;;
23565;SDS011;22140;48.988;8.544;2023-08-06T15:16:17;3.40;;;0.88;;
23565;SDS011;22140;48.988;8.544;2023-08-06T15:21:18;3.58;;;0.65;;
23565;SDS011;22140;48.988;8.544;2023-08-06T15:26:19;3.60;;;0.63;;
23565;SDS011;22140;48.988;8.544;2023-08-06T15:31:22;3.93;;;0.80;;
23565;SDS011;22140;48.988;8.544;2023-08-06T15:36:23;3.92;;;1.00;;
23565;SDS011;22140;48.988;8.544;2023-08-06T15:41:24;3.33;;;0.70;;
23565;SDS011;22140;48.988;8.544;2023-08-06T15:46:26;4.07;;;0.80;;
23565;SDS011;22140;48.988;8.544;2023-08-06T15:51:27;3.42;;;0.77;;
23565;SDS011;22140;48.988;8.544;2023-08-06T15:56:28;4.05;;;0.80;;
23565;SDS011;22140;48.988;8.544;2023-08-06T16:01:30;4.97;;;0.87;;
23565;SDS011;22140;48.988;8.544;2023-08-06T16:06:31;5.80;;;1.05;;
23565;SDS011;22140;48.988;8.544;2023-08-06T16:11:33;5.32;;;0.95;;
23565;SDS011;22140;48.988;8.544;2023-08-06T16:16:34;4.77;;;1.00;;
23565;SDS011;22140;48.988;8.544;2023-08-06T16:21:36;3.80;;;0.90;;
23565;SDS011;22140;48.988;8.544;2023-08-06T16:26:37;3.38;;;0.80;;
23565;SDS011;22140;48.988;8.544;2023-08-06T16:31:38;4.65;;;1.20;;
23565;SDS011;22140;48.988;8.544;2023-08-06T16:36:40;5.23;;;1.17;;
23565;SDS011;22140;48.988;8.544;2023-08-06T16:41:41;5.57;;;1.20;;
23565;SDS011;22140;48.988;8.544;2023-08-06T16:46:43;5.28;;;1.08;;
23565;SDS011;22140;48.988;8.544;2023-08-06T16:51:44;4.40;;;1.00;;
23565;SDS011;22140;48.988;8.544;2023-08-06T16:56:45;4.50;;;0.90;;
23565;SDS011;22140;48.988;8.544;2023-08-06T17:01:47;5.63;;;1.20;;
23565;SDS011;22140;48.988;8.544;2023-08-06T17:06:48;5.10;;;1.20;;
23565;SDS011;22140;48.988;8.544;2023-08-06T17:11:49;4.47;;;1.02;;
23565;SDS011;22140;48.988;8.544;2023-08-06T17:16:51;4.30;;;1.00;;
23565;SDS011;22140;48.988;8.544;2023-08-06T17:21:54;4.93;;;1.10;;
23565;SDS011;22140;48.988;8.544;2023-08-06T17:26:56;7.27;;;1.37;;
23565;SDS011;22140;48.988;8.544;2023-08-06T17:32:00;5.07;;;1.05;;
23565;SDS011;22140;48.988;8.544;2023-08-06T17:37:01;5.20;;;1.08;;
23565;SDS011;22140;48.988;8.544;2023-08-06T17:42:06;4.63;;;1.00;;
23565;SDS011;22140;48.988;8.544;2023-08-06T17:47:11;9.70;;;1.40;;
23565;SDS011;22140;48.988;8.544;2023-08-06T17:52:31;5.53;;;1.02;;
23565;SDS011;22140;48.988;8.544;2023-08-06T17:57:32;4.73;;;1.10;;
23565;SDS011;22140;48.988;8.544;2023-08-06T18:02:33;7.18;;;1.50;;
23565;SDS011;22140;48.988;8.544;2023-08-06T18:07:35;4.57;;;1.17;;
23565;SDS011;22140;48.988;8.544;2023-08-06T18:12:37;6.90;;;1.87;;
23565;SDS011;22140;48.988;8.544;2023-08-06T18:17:40;4.87;;;1.23;;
23565;SDS011;22140;48.988;8.544;2023-08-06T18:22:42;4.20;;;1.10;;
23565;SDS011;22140;48.988;8.544;2023-08-06T18:27:43;7.50;;;1.30;;
23565;SDS011;22140;48.988;8.544;2023-08-06T18:32:45;3.83;;;0.90;;
23565;SDS011;22140;48.988;8.544;2023-08-06T18:37:47;5.22;;;1.00;;
23565;SDS011;22140;48.988;8.544;2023-08-06T18:42:48;5.15;;;1.10;;
23565;SDS011;22140;48.988;8.544;2023-08-06T18:47:49;4.67;;;1.17;;
23565;SDS011;22140;48.988;8.544;2023-08-06T18:52:52;6.88;;;1.20;;
23565;SDS011;22140;48.988;8.544;2023-08-06T18:57:53;4.70;;;1.15;;
23565;SDS011;22140;48.988;8.544;2023-08-06T19:02:54;6.00;;;1.10;;
23565;SDS011;22140;48.988;8.544;2023-08-06T19:07:56;7.70;;;1.40;;
23565;SDS011;22140;48.988;8.544;2023-08-06T19:12:58;5.43;;;1.10;;
23565;SDS011;22140;48.988;8.544;2023-08-06T19:18:00;6.77;;;1.00;;
23565;SDS011;22140;48.988;8.544;2023-08-06T19:23:01;4.80;;;1.10;;
23565;SDS011;22140;48.988;8.544;2023-08-06T19:28:04;4.05;;;0.93;;
23565;SDS011;22140;48.988;8.544;2023-08-06T19:33:08;5.00;;;1.20;;
23565;SDS011;22140;48.988;8.544;2023-08-06T19:38:11;6.23;;;1.20;;
23565;SDS011;22140;48.988;8.544;2023-08-06T19:43:12;4.63;;;1.20;;
23565;SDS011;22140;48.988;8.544;2023-08-06T19:48:14;4.68;;;1.27;;
23565;SDS011;22140;48.988;8.544;2023-08-06T19:53:15;6.57;;;1.53;;
23565;SDS011;22140;48.988;8.544;2023-08-06T19:58:17;4.57;;;1.10;;
23565;SDS011;22140;48.988;8.544;2023-08-06T20:03:19;7.53;;;1.30;;
23565;SDS011;22140;48.988;8.544;2023-08-06T20:08:21;4.93;;;1.40;;
23565;SDS011;22140;48.988;8.544;2023-08-06T20:13:22;5.63;;;1.20;;
23565;SDS011;22140;48.988;8.544;2023-08-06T20:18:23;6.00;;;1.20;;
23565;SDS011;22140;48.988;8.544;2023-08-06T20:23:27;5.63;;;1.33;;
23565;SDS011;22140;48.988;8.544;2023-08-06T20:28:28;4.50;;;1.20;;
23565;SDS011;22140;48.988;8.544;2023-08-06T20:33:31;5.55;;;1.08;;
23565;SDS011;22140;48.988;8.544;2023-08-06T20:38:32;9.70;;;1.10;;
23565;SDS011;22140;48.988;8.544;2023-08-06T20:43:34;5.28;;;1.20;;
23565;SDS011;22140;48.988;8.544;2023-08-06T20:48:35;6.10;;;1.10;;
23565;SDS011;22140;48.988;8.544;2023-08-06T20:53:36;5.47;;;1.30;;
23565;SDS011;22140;48.988;8.544;2023-08-06T20:58:38;5.50;;;1.50;;
23565;SDS011;22140;48.988;8.544;2023-08-06T21:03:39;6.22;;;1.20;;
23565;SDS011;22140;48.988;8.544;2023-08-06T21:08:40;5.20;;;1.20;;
23565;SDS011;22140;48.988;8.544;2023-08-06T21:13:42;5.40;;;1.23;;
23565;SDS011;22140;48.988;8.544;2023-08-06T21:18:46;7.00;;;1.30;;
23565;SDS011;22140;48.988;8.544;2023-08-06T21:23:47;5.63;;;1.33;;
23565;SDS011;22140;48.988;8.544;2023-08-06T21:28:48;4.43;;;1.00;;
23565;SDS011;22140;48.988;8.544;2023-08-06T21:33:50;5.60;;;1.40;;
23565;SDS011;22140;48.988;8.544;2023-08-06T21:38:51;5.20;;;1.10;;
23565;SDS011;22140;48.988;8.544;2023-08-06T21:43:52;4.93;;;1.10;;
23565;SDS011;22140;48.988;8.544;2023-08-06T21:48:54;4.43;;;1.00;;
23565;SDS011;22140;48.988;8.544;2023-08-06T21:53:59;5.33;;;1.20;;
23565;SDS011;22140;48.988;8.544;2023-08-06T21:59:00;4.13;;;1.10;;
23565;SDS011;22140;48.988;8.544;2023-08-06T22:04:02;4.80;;;1.10;;
23565;SDS011;22140;48.988;8.544;2023-08-06T22:09:04;4.00;;;0.90;;
23565;SDS011;22140;48.988;8.544;2023-08-06T22:14:05;4.68;;;1.33;;
23565;SDS011;22140;48.988;8.544;2023-08-06T22:19:06;5.70;;;1.20;;
23565;SDS011;22140;48.988;8.544;2023-08-06T22:24:08;5.17;;;1.20;;
23565;SDS011;22140;48.988;8.544;2023-08-06T22:29:10;4.03;;;0.90;;
23565;SDS011;22140;48.988;8.544;2023-08-06T22:34:11;4.40;;;0.93;;
23565;SDS011;22140;48.988;8.544;2023-08-06T22:39:12;4.40;;;0.90;;
23565;SDS011;22140;48.988;8.544;2023-08-06T22:44:14;4.57;;;0.90;;
23565;SDS011;22140;48.988;8.544;2023-08-06T22:49:15;4.30;;;1.00;;
23565;SDS011;22140;48.988;8.544;2023-08-06T22:54:16;4.03;;;1.00;;
23565;SDS011;22140;48.988;8.544;2023-08-06T22:59:18;6.35;;;1.30;;
23565;SDS011;22140;48.988;8.544;2023-08-06T23:04:19;5.10;;;1.03;;
23565;SDS011;22140;48.988;8.544;2023-08-06T23:09:21;5.30;;;1.10;;
23565;SDS011;22140;48.988;8.544;2023-08-06T23:14:22;6.03;;;1.10;;
23565;SDS011;22140;48.988;8.544;2023-08-06T23:19:23;5.30;;;1.10;;
23565;SDS011;22140;48.988;8.544;2023-08-06T23:24:25;6.43;;;1.40;;
23565;SDS011;22140;48.988;8.544;2023-08-06T23:29:28;6.82;;;1.10;;
23565;SDS011;22140;48.988;8.544;2023-08-06T23:34:29;5.67;;;1.13;;
23565;SDS011;22140;48.988;8.544;2023-08-06T23:39:44;5.20;;;1.10;;
23565;SDS011;22140;48.988;8.544;2023-08-06T23:44:46;5.03;;;1.10;;
23565;SDS011;22140;48.988;8.544;2023-08-06T23:49:47;6.40;;;1.30;;
23565;SDS011;22140;48.988;8.544;2023-08-06T23:54:49;6.20;;;1.10;;
23565;SDS011;22140;48.988;8.544;2023-08-06T23:59:50;5.53;;;1.00;;
